sim
Sign-in with your pilot id or email,
or register
Callsign
Passwort

Schedule Details

Flight Number: EWG1713 (3)
Departure: Edinburgh Airport (EGPH) at 13:15
Arrival: Munich Airport (EDDM) at 15:30
Route: Eurowings Passenger Schedule. Enter filed route here before submitting Pirep.

Weather Information
Getting current METAR information for EGPH 241020Z 06008KT 9999 FEW020 BKN041 10/06 Q0994
Getting current METAR information for EDDM 241020Z 25009KT 9999 FEW026 19/14 Q1010 NOSIG

Schedule Frequency

Route Map